Aurora, Colorado
Current Conditions -  °F | °C
As of 1:58 AM on Thursday 23 Oct 2014 (Local Time) from KBKF Reporting Station
Scattered Clouds Scattered Clouds  
Wind Chill: 43°   Ceiling: Unl
Heat Index: 46°   Visibility: 10mi
Dew Point: 39°   Wind: 6mph
Humidity: 76%   Direction: 190°S
Pressure: 30.16"   Gusts: NA
Location:  39.69°N, 104.86°W
Report Text: KBKF 230758Z 19005KT 10SM FEW100 SCT220 08/04 A3016 RMK AO2A SLP164 T00770038
Loading
Personal Weather Stations






























Interactive Weather Map
Tropical Storm Tracking
New forecast layout! Learn more

10-Day Weather Forecast

Advertisements
Track Severe Weather on mobile